Time;durP1;ratioP1;P1;durP2;ratioP2;P2;SDS_P1;SDS_P2;PMS_P1;PMS_P2;Temp;Humidity;BMP_temperature;BMP_pressure;BME280_temperature;BME280_humidity;BME280_pressure;Samples;Min_cycle;Max_cycle;Signal;HPM_P1;HPM_P2
2023/01/04 00:01:19;;;;;;;109.22;53.35;;;9.70;99.90;;;;;;6137144;23;20015;-88
2023/01/04 00:03:45;;;;;;;104.82;49.95;;;9.70;99.90;;;;;;6137271;23;20063;-89
2023/01/04 00:06:14;;;;;;;104.32;50.75;;;9.70;99.90;;;;;;6137088;23;20012;-88
2023/01/04 00:08:41;;;;;;;112.70;53.90;;;9.70;99.90;;;;;;6191118;23;20102;-88
2023/01/04 00:11:14;;;;;;;114.50;54.65;;;9.70;99.90;;;;;;6216318;23;20008;-88
2023/01/04 00:13:40;;;;;;;105.93;51.13;;;9.70;99.90;;;;;;6191582;23;20013;-88
2023/01/04 00:16:13;;;;;;;100.22;49.15;;;9.70;99.90;;;;;;6216468;23;20088;-88
2023/01/04 00:18:43;;;;;;;101.75;51.65;;;9.70;99.90;;;;;;6217100;23;20342;-89
2023/01/04 00:21:23;;;;;;;96.55;48.30;;;9.80;99.90;;;;;;6216361;23;20058;-88
2023/01/04 00:23:52;;;;;;;112.82;52.53;;;9.80;99.90;;;;;;6216199;23;20020;-88
2023/01/04 00:26:23;;;;;;;105.20;53.53;;;9.80;99.90;;;;;;6216026;23;20008;-89
2023/01/04 00:29:02;;;;;;;114.90;55.53;;;9.90;99.90;;;;;;6216129;23;20056;-88
2023/01/04 00:31:29;;;;;;;123.78;56.92;;;9.90;99.90;;;;;;6191176;23;20434;-90
2023/01/04 00:33:58;;;;;;;115.70;58.85;;;9.90;99.90;;;;;;6216572;23;20004;-89
2023/01/04 00:36:25;;;;;;;115.47;55.65;;;10.00;99.90;;;;;;6216082;23;20004;-87
2023/01/04 00:39:06;;;;;;;126.18;59.15;;;10.00;99.90;;;;;;6216159;23;20032;-89
2023/01/04 00:41:37;;;;;;;123.60;59.50;;;10.10;99.90;;;;;;6216186;23;20008;-88
2023/01/04 00:44:11;;;;;;;123.93;61.15;;;10.10;99.90;;;;;;6241255;23;20067;-88
2023/01/04 00:46:39;;;;;;;129.32;61.75;;;10.10;99.90;;;;;;6215823;23;20009;-90
2023/01/04 00:49:08;;;;;;;136.30;64.80;;;10.10;99.90;;;;;;6215896;23;20005;-90
2023/01/04 00:51:35;;;;;;;129.45;61.97;;;10.10;99.90;;;;;;6215336;23;20004;-88
2023/01/04 00:54:07;;;;;;;136.00;61.30;;;10.20;99.90;;;;;;6215876;23;20004;-89
2023/01/04 00:56:34;;;;;;;131.85;61.15;;;10.20;99.90;;;;;;6215896;23;20015;-88
2023/01/04 00:59:04;;;;;;;133.73;62.03;;;10.20;99.90;;;;;;6215810;23;20020;-89
2023/01/04 01:01:38;;;;;;;159.25;67.03;;;10.20;99.90;;;;;;6216098;23;20008;-88
2023/01/04 01:04:05;;;;;;;123.80;60.03;;;10.20;99.90;;;;;;6190677;23;20016;-90
2023/01/04 01:06:32;;;;;;;120.25;58.47;;;10.20;99.90;;;;;;6215592;23;20008;-89
2023/01/04 01:09:00;;;;;;;126.35;62.58;;;10.20;99.90;;;;;;6190764;23;20019;-89
2023/01/04 01:11:27;;;;;;;117.90;57.72;;;10.10;99.90;;;;;;6165955;23;20004;-90
2023/01/04 01:13:58;;;;;;;119.00;58.70;;;10.20;99.90;;;;;;6190552;23;20013;-88
2023/01/04 01:16:26;;;;;;;129.50;60.58;;;10.20;99.90;;;;;;6190881;23;20095;-88
2023/01/04 01:18:53;;;;;;;125.28;59.50;;;10.20;99.90;;;;;;6165653;23;20330;-90
2023/01/04 01:21:24;;;;;;;133.55;62.25;;;10.20;99.90;;;;;;6190554;23;20013;-90
2023/01/04 01:23:53;;;;;;;123.65;59.55;;;10.20;99.90;;;;;;6165593;23;20016;-90
2023/01/04 01:26:25;;;;;;;114.65;55.33;;;10.30;99.90;;;;;;6191056;23;20016;-89
2023/01/04 01:28:52;;;;;;;122.78;52.97;;;10.30;99.90;;;;;;6192864;23;20013;-88
2023/01/04 01:31:22;;;;;;;119.18;55.88;;;10.30;99.90;;;;;;6169953;23;20000;-89
2023/01/04 01:33:51;;;;;;;113.35;56.13;;;10.30;99.90;;;;;;6165780;23;20012;-89
2023/01/04 01:36:20;;;;;;;140.65;61.80;;;10.20;99.90;;;;;;6165812;23;20087;-89
2023/01/04 01:38:47;;;;;;;122.60;55.60;;;10.20;99.90;;;;;;6191443;23;20036;-91
2023/01/04 01:41:22;;;;;;;132.63;58.42;;;10.20;99.90;;;;;;6165716;23;20011;-91
2023/01/04 01:43:56;;;;;;;140.38;59.50;;;10.20;99.90;;;;;;6190589;23;20103;-91
2023/01/04 01:46:57;;;;;;;125.57;57.47;;;10.20;99.90;;;;;;6166089;23;20331;-90
2023/01/04 01:49:36;;;;;;;116.30;55.92;;;10.20;99.90;;;;;;6191018;23;20009;-92
2023/01/04 01:52:08;;;;;;;137.30;61.78;;;10.20;99.90;;;;;;6166127;23;20083;-90
2023/01/04 01:54:45;;;;;;;132.07;58.58;;;10.10;99.90;;;;;;6166103;23;20008;-91
2023/01/04 01:57:17;;;;;;;142.07;60.97;;;10.10;99.90;;;;;;6190729;23;20012;-89
2023/01/04 01:59:47;;;;;;;135.93;57.30;;;10.10;99.90;;;;;;6190540;23;20016;-90
2023/01/04 02:02:14;;;;;;;131.63;55.58;;;10.00;99.90;;;;;;6166121;23;20005;-89
2023/01/04 02:04:46;;;;;;;125.18;56.60;;;10.00;99.90;;;;;;6168000;23;20446;-90
2023/01/04 02:07:18;;;;;;;134.20;57.28;;;10.00;99.90;;;;;;6198977;23;20019;-93
2023/01/04 02:09:46;;;;;;;135.13;57.42;;;10.10;99.90;;;;;;6192480;23;20502;-90
2023/01/04 02:12:13;;;;;;;139.50;58.75;;;10.00;99.90;;;;;;6217582;23;20008;-91
2023/01/04 02:14:48;;;;;;;145.95;61.40;;;10.00;99.90;;;;;;6217217;23;20008;-90
2023/01/04 02:17:29;;;;;;;;;;;10.00;99.90;;;;;;6218147;23;20062;-91
2023/01/04 02:20:21;;;;;;;148.80;60.30;;;9.90;99.90;;;;;;6242737;23;19904;-91
2023/01/04 02:23:07;;;;;;;169.35;61.53;;;9.90;99.90;;;;;;6217297;23;20011;-91
2023/01/04 02:25:49;;;;;;;154.73;58.00;;;9.90;99.90;;;;;;6242779;23;20497;-90
2023/01/04 02:28:21;;;;;;;143.60;59.25;;;9.90;99.90;;;;;;6192322;23;20031;-90
2023/01/04 02:31:02;;;;;;;150.95;61.72;;;9.90;99.90;;;;;;6242584;23;20394;-91
2023/01/04 02:34:02;;;;;;;163.45;62.40;;;9.80;99.90;;;;;;6192312;23;20016;-90
2023/01/04 02:36:47;;;;;;;151.52;60.42;;;9.80;99.90;;;;;;6217117;23;20013;-91
2023/01/04 02:39:34;;;;;;;138.48;60.53;;;9.70;99.90;;;;;;6217446;23;20504;-90
2023/01/04 02:44:51;;;;;;;148.27;60.00;;;9.70;99.90;;;;;;6217640;23;20087;-90
2023/01/04 02:45:14;;;;;;;136.85;57.08;;;9.70;99.90;;;;;;6217257;23;20020;-89
2023/01/04 02:50:55;;;;;;;135.38;56.92;;;9.60;99.90;;;;;;6242463;23;20052;-91
2023/01/04 02:53:28;;;;;;;155.60;61.13;;;9.60;99.90;;;;;;6217242;23;20015;-90
2023/01/04 02:56:35;;;;;;;155.63;61.47;;;9.60;99.90;;;;;;6217226;23;20092;-92
2023/01/04 02:59:37;;;;;;;156.43;59.58;;;9.60;99.90;;;;;;6192027;23;20008;-93
2023/01/04 03:09:13;;;;;;;144.13;58.53;;;9.50;99.90;;;;;;6216637;23;20024;-90
2023/01/04 03:15:27;;;;;;;151.48;58.88;;;9.50;99.90;;;;;;6241890;23;20012;-90
2023/01/04 03:18:00;;;;;;;141.98;56.75;;;9.50;99.90;;;;;;6131913;23;20136;-89
2023/01/04 03:20:29;;;;;;;132.88;56.30;;;9.50;99.90;;;;;;6156933;23;20097;-92
2023/01/04 03:49:42;;;;;;;162.20;58.08;;;9.60;99.90;;;;;;6073204;23;20010;-91
2023/01/04 03:52:12;;;;;;;152.23;57.55;;;9.60;99.90;;;;;;6106247;23;20012;-90
2023/01/04 03:54:43;;;;;;;152.38;57.65;;;9.60;99.90;;;;;;6193033;23;20012;-90
2023/01/04 03:57:15;;;;;;;147.77;55.35;;;9.50;99.90;;;;;;6216612;23;20009;-90
2023/01/04 03:59:48;;;;;;;141.25;51.70;;;9.50;99.90;;;;;;6216251;23;20016;-92
2023/01/04 04:02:29;;;;;;;159.33;58.20;;;9.50;99.90;;;;;;6216743;23;20009;-89
2023/01/04 04:10:29;;;;;;;142.55;55.58;;;9.50;99.90;;;;;;6240169;23;20035;-88
2023/01/04 04:12:56;;;;;;;162.57;58.17;;;9.50;99.90;;;;;;6215002;23;20011;-89
2023/01/04 04:15:23;;;;;;;154.55;55.38;;;9.40;99.90;;;;;;6215168;23;20009;-92
2023/01/04 04:17:55;;;;;;;154.15;57.88;;;9.50;99.90;;;;;;6189736;23;20013;-90
2023/01/04 04:20:22;;;;;;;155.50;55.63;;;9.40;99.90;;;;;;6214786;23;20008;-91
2023/01/04 04:22:48;;;;;;;145.32;56.13;;;9.40;99.90;;;;;;6214613;23;20013;-90
2023/01/04 04:25:14;;;;;;;133.30;52.50;;;9.40;99.90;;;;;;6214710;23;20016;-91
2023/01/04 04:27:41;;;;;;;151.00;56.00;;;9.40;99.90;;;;;;6214968;23;20016;-92
2023/01/04 04:30:08;;;;;;;139.65;54.00;;;9.40;99.90;;;;;;6215145;23;20078;-90
2023/01/04 04:32:35;;;;;;;157.00;56.40;;;9.40;99.90;;;;;;6214985;23;20179;-90
2023/01/04 04:35:01;;;;;;;135.40;51.95;;;9.30;99.90;;;;;;6215274;23;20012;-90
2023/01/04 04:37:33;;;;;;;146.98;54.28;;;9.30;99.90;;;;;;6214714;23;20068;-89
2023/01/04 04:40:06;;;;;;;130.02;52.15;;;9.30;99.90;;;;;;6189953;23;20015;-90
2023/01/04 04:42:33;;;;;;;131.88;51.10;;;9.30;99.90;;;;;;6214969;23;20016;-91
2023/01/04 04:45:00;;;;;;;139.90;52.08;;;9.30;99.90;;;;;;6215249;23;20016;-91
2023/01/04 04:47:26;;;;;;;149.88;53.72;;;9.30;99.90;;;;;;6214793;23;20087;-90
2023/01/04 04:49:53;;;;;;;116.45;49.55;;;9.30;99.90;;;;;;6214793;23;20182;-91
2023/01/04 04:52:19;;;;;;;148.43;54.75;;;9.30;99.90;;;;;;6190006;23;20012;-89
2023/01/04 04:54:46;;;;;;;149.23;53.75;;;9.30;99.90;;;;;;6214793;23;20084;-89
2023/01/04 04:57:12;;;;;;;158.48;56.08;;;9.30;99.90;;;;;;6214948;23;20012;-90
2023/01/04 04:59:39;;;;;;;152.43;56.10;;;9.30;99.90;;;;;;6214886;23;20000;-89
2023/01/04 05:02:06;;;;;;;137.95;51.60;;;9.30;99.90;;;;;;6214945;23;20430;-92
2023/01/04 05:04:35;;;;;;;121.10;48.38;;;9.30;99.90;;;;;;6214959;23;20016;-90
2023/01/04 05:07:02;;;;;;;156.05;52.65;;;9.30;99.90;;;;;;6147286;23;1497063;-90
2023/01/04 05:09:29;;;;;;;140.20;53.25;;;9.30;99.90;;;;;;6175178;23;20012;-88
2023/01/04 05:14:40;;;;;;;161.88;60.42;;;9.30;99.90;;;;;;6241435;23;20009;-90
2023/01/04 05:17:08;;;;;;;195.65;70.97;;;9.30;99.90;;;;;;6216294;23;20034;-89
2023/01/04 05:19:34;;;;;;;184.32;76.38;;;9.30;99.90;;;;;;6216237;23;20032;-92
2023/01/04 05:22:01;;;;;;;163.63;64.95;;;9.30;99.90;;;;;;6190920;23;20084;-90
2023/01/04 05:24:27;;;;;;;135.32;55.20;;;9.30;99.90;;;;;;6215922;23;20020;-89
2023/01/04 05:26:54;;;;;;;144.20;57.88;;;9.30;99.90;;;;;;6192037;23;20008;-89
2023/01/04 05:32:06;;;;;;;156.85;60.17;;;9.30;99.90;;;;;;6250388;23;20005;-90
2023/01/04 05:34:33;;;;;;;135.88;55.05;;;9.30;99.90;;;;;;6216027;23;20007;-89
2023/01/04 05:36:59;;;;;;;121.78;51.15;;;9.30;99.90;;;;;;6215392;23;20047;-90
2023/01/04 05:39:26;;;;;;;129.30;52.35;;;9.30;99.90;;;;;;6190656;23;20001;-90
2023/01/04 05:44:38;;;;;;;142.35;52.38;;;9.30;99.90;;;;;;6240919;23;20524;-91
2023/01/04 05:47:04;;;;;;;134.30;51.47;;;9.30;99.90;;;;;;6215527;23;20055;-91
2023/01/04 05:49:31;;;;;;;126.57;46.38;;;9.30;99.90;;;;;;6215786;23;20016;-91
2023/01/04 05:51:58;;;;;;;109.40;43.22;;;9.30;99.90;;;;;;6216151;23;20004;-90
2023/01/04 05:54:25;;;;;;;121.93;48.08;;;9.30;99.90;;;;;;6215503;23;20013;-89
2023/01/04 05:56:51;;;;;;;128.93;44.42;;;9.30;99.90;;;;;;6186192;23;20001;-91
2023/01/04 05:59:18;;;;;;;110.72;44.17;;;9.40;99.90;;;;;;6215844;23;20012;-91
2023/01/04 06:01:44;;;;;;;120.93;47.15;;;9.30;99.90;;;;;;6190633;23;20087;-91
2023/01/04 06:04:11;;;;;;;99.68;41.20;;;9.30;99.90;;;;;;6215482;23;20095;-90
2023/01/04 06:06:40;;;;;;;133.57;46.13;;;9.40;99.90;;;;;;6215208;23;20091;-91
2023/01/04 06:09:07;;;;;;;116.30;45.90;;;9.40;99.90;;;;;;6165551;23;20008;-90
2023/01/04 06:11:34;;;;;;;115.07;43.88;;;9.40;99.90;;;;;;6190428;23;20004;-90
2023/01/04 06:14:00;;;;;;;115.30;44.33;;;9.40;99.90;;;;;;6165468;23;20004;-90
2023/01/04 06:16:27;;;;;;;101.97;41.45;;;9.40;99.90;;;;;;6190617;23;20009;-91
2023/01/04 06:18:54;;;;;;;111.22;43.08;;;9.40;99.90;;;;;;6191400;23;20410;-89
2023/01/04 06:21:26;;;;;;;103.63;41.17;;;9.50;99.90;;;;;;6165824;23;20055;-91
2023/01/04 06:23:53;;;;;;;99.55;41.10;;;9.50;99.90;;;;;;6165663;23;20024;-88
2023/01/04 06:26:20;;;;;;;105.50;40.28;;;9.50;99.90;;;;;;6190654;23;20009;-91
2023/01/04 06:28:47;;;;;;;95.10;38.50;;;9.60;99.90;;;;;;6190965;23;20039;-90
2023/01/04 06:31:13;;;;;;;81.97;36.75;;;9.60;99.90;;;;;;6165901;23;20012;-93
2023/01/04 06:33:40;;;;;;;96.68;38.10;;;9.70;99.90;;;;;;6165784;23;20024;-92
2023/01/04 06:36:07;;;;;;;88.70;36.47;;;9.70;99.90;;;;;;6166028;23;20089;-90
2023/01/04 06:38:37;;;;;;;85.93;35.90;;;9.80;99.90;;;;;;6190665;23;20004;-89
2023/01/04 06:41:06;;;;;;;81.90;35.38;;;9.80;99.90;;;;;;6190494;23;20438;-88
2023/01/04 06:43:33;;;;;;;83.43;36.30;;;9.90;99.90;;;;;;6166421;23;20021;-91
2023/01/04 06:46:00;;;;;;;84.43;35.22;;;10.00;99.90;;;;;;6165895;23;20008;-90
2023/01/04 06:48:27;;;;;;;81.50;35.10;;;10.10;99.90;;;;;;6190320;23;20004;-92
2023/01/04 06:50:53;;;;;;;69.22;32.85;;;10.20;99.90;;;;;;6192775;23;20319;-90
2023/01/04 06:53:20;;;;;;;72.25;32.65;;;10.40;99.90;;;;;;6192523;23;20016;-91
2023/01/04 06:55:46;;;;;;;65.10;29.45;;;10.70;99.90;;;;;;6193771;23;20001;-92
2023/01/04 06:58:13;;;;;;;52.30;27.38;;;11.00;99.90;;;;;;6192119;23;20047;-89
2023/01/04 07:00:40;;;;;;;49.33;26.40;;;11.20;99.90;;;;;;6192182;23;20036;-93
2023/01/04 07:03:07;;;;;;;49.65;28.33;;;11.60;99.90;;;;;;6167019;23;20017;-92
2023/01/04 07:05:33;;;;;;;50.08;28.38;;;11.80;99.90;;;;;;6167361;23;20012;-91
2023/01/04 07:08:03;;;;;;;42.53;25.63;;;12.00;99.90;;;;;;6191787;23;20021;-91
2023/01/04 07:10:30;;;;;;;44.53;27.35;;;12.30;99.90;;;;;;6192659;23;20338;-89
2023/01/04 07:12:57;;;;;;;55.20;29.50;;;12.50;99.90;;;;;;6167672;23;20060;-92
2023/01/04 07:15:23;;;;;;;46.92;27.48;;;12.60;99.90;;;;;;6192236;23;20097;-92
2023/01/04 07:17:50;;;;;;;46.78;29.30;;;12.60;99.90;;;;;;6192087;23;20005;-92
2023/01/04 07:20:17;;;;;;;44.42;29.60;;;12.70;99.90;;;;;;6167915;23;20009;-92
2023/01/04 07:22:43;;;;;;;43.58;28.42;;;12.60;99.90;;;;;;6192170;23;20013;-92
2023/01/04 07:25:20;;;;;;;46.67;32.10;;;12.40;99.90;;;;;;6192490;23;20175;-93
2023/01/04 07:27:52;;;;;;;43.15;28.90;;;12.40;99.90;;;;;;6202969;23;20012;-91
2023/01/04 07:30:20;;;;;;;45.97;30.27;;;12.30;99.90;;;;;;6208789;23;20100;-93
2023/01/04 07:32:47;;;;;;;44.97;29.30;;;12.20;99.90;;;;;;6171446;23;20027;-92
2023/01/04 07:35:14;;;;;;;42.00;29.67;;;12.10;99.90;;;;;;6192141;23;20019;-93
2023/01/04 07:37:42;;;;;;;45.42;31.05;;;12.20;99.90;;;;;;6191652;23;20343;-92
2023/01/04 07:40:10;;;;;;;46.72;29.10;;;12.20;99.90;;;;;;6166957;23;20011;-93
2023/01/04 07:42:37;;;;;;;50.78;30.25;;;12.20;99.90;;;;;;6191741;23;20016;-90
2023/01/04 07:45:05;;;;;;;49.72;30.10;;;12.10;99.90;;;;;;6167129;23;20019;-92
2023/01/04 07:47:32;;;;;;;51.35;31.42;;;12.20;99.90;;;;;;6166794;23;20087;-93
2023/01/04 07:49:59;;;;;;;43.05;29.95;;;12.10;99.90;;;;;;6191333;23;20378;-90
2023/01/04 07:52:26;;;;;;;60.63;30.85;;;12.10;99.90;;;;;;6191548;23;20058;-92
2023/01/04 07:54:53;;;;;;;40.58;26.98;;;12.20;99.90;;;;;;6191246;23;20040;-93
2023/01/04 07:57:19;;;;;;;44.40;28.77;;;12.20;99.90;;;;;;6191593;23;20009;-90
2023/01/04 07:59:46;;;;;;;44.47;26.90;;;12.20;99.90;;;;;;6166148;23;20079;-93
2023/01/04 08:02:13;;;;;;;41.97;28.10;;;12.30;99.90;;;;;;6191196;23;20005;-92
2023/01/04 08:04:40;;;;;;;37.88;26.63;;;12.40;99.90;;;;;;6191364;23;20032;-91
2023/01/04 08:07:06;;;;;;;39.67;26.02;;;12.50;99.90;;;;;;6196401;23;20016;-92
2023/01/04 08:09:33;;;;;;;42.30;27.52;;;12.60;99.90;;;;;;6216481;23;20092;-91
2023/01/04 08:12:00;;;;;;;38.35;25.75;;;12.60;99.90;;;;;;6217009;23;20007;-91
2023/01/04 08:14:26;;;;;;;40.47;25.45;;;12.80;99.90;;;;;;6187265;23;20024;-92
2023/01/04 08:16:53;;;;;;;38.28;25.77;;;12.90;99.90;;;;;;6187061;23;20482;-91
2023/01/04 08:19:21;;;;;;;37.17;24.95;;;13.00;99.90;;;;;;6216525;23;20039;-92
2023/01/04 08:21:49;;;;;;;39.72;24.75;;;12.90;99.90;;;;;;6216271;23;20043;-91
2023/01/04 08:24:19;;;;;;;35.83;23.17;;;13.00;99.90;;;;;;6191203;23;20021;-92
2023/01/04 08:26:46;;;;;;;41.25;24.67;;;13.00;99.90;;;;;;6217185;23;20079;-91
2023/01/04 08:29:14;;;;;;;39.20;25.58;;;13.00;99.90;;;;;;6216325;23;20009;-92
2023/01/04 08:31:41;;;;;;;46.20;29.05;;;13.00;99.90;;;;;;6216418;23;20501;-92
2023/01/04 08:34:09;;;;;;;46.85;27.00;;;13.00;99.90;;;;;;6216505;23;20430;-91
2023/01/04 08:36:51;;;;;;;39.35;28.13;;;13.00;99.90;;;;;;6217588;23;20011;-92
2023/01/04 08:39:18;;;;;;;38.63;26.23;;;13.00;99.90;;;;;;6216457;23;20048;-91
2023/01/04 08:41:52;;;;;;;34.35;26.02;;;13.10;99.90;;;;;;6166572;23;20005;-91
2023/01/04 08:44:24;;;;;;;40.40;27.60;;;13.10;99.90;;;;;;6216161;23;20021;-90
2023/01/04 08:46:52;;;;;;;43.65;27.30;;;13.10;99.90;;;;;;6216152;23;20004;-92
2023/01/04 08:49:20;;;;;;;40.72;27.77;;;13.20;99.90;;;;;;6216127;23;20055;-88
2023/01/04 08:51:48;;;;;;;38.20;25.00;;;13.20;99.90;;;;;;6191041;23;20311;-92
2023/01/04 08:54:15;;;;;;;38.95;25.20;;;13.20;99.90;;;;;;6216028;23;20009;-90
2023/01/04 08:56:42;;;;;;;40.75;26.90;;;13.20;99.90;;;;;;6215858;23;20012;-92
2023/01/04 08:59:11;;;;;;;39.70;27.75;;;13.30;99.90;;;;;;6215734;23;20102;-91
2023/01/04 09:01:39;;;;;;;41.58;26.60;;;13.30;99.90;;;;;;6215955;23;20013;-91
2023/01/04 09:04:06;;;;;;;35.08;24.80;;;13.40;99.90;;;;;;6191079;23;20016;-93
2023/01/04 09:06:33;;;;;;;41.00;26.70;;;13.50;99.90;;;;;;6190829;23;20009;-92
2023/01/04 09:09:00;;;;;;;31.83;23.83;;;13.50;99.90;;;;;;6165889;23;20457;-92
2023/01/04 09:11:26;;;;;;;47.47;31.88;;;13.60;99.90;;;;;;6165690;23;20016;-91
2023/01/04 09:13:56;;;;;;;35.25;21.52;;;13.60;99.90;;;;;;6165932;23;20092;-90
2023/01/04 09:16:23;;;;;;;27.77;21.40;;;13.60;99.90;;;;;;6166281;23;20011;-90
2023/01/04 09:18:50;;;;;;;36.40;26.55;;;13.60;99.90;;;;;;6165944;23;20008;-90
2023/01/04 09:21:19;;;;;;;31.92;22.65;;;13.60;99.90;;;;;;6165931;23;20009;-90
2023/01/04 09:23:47;;;;;;;32.53;22.13;;;13.70;99.90;;;;;;6190688;23;20095;-92
2023/01/04 09:26:21;;;;;;;33.88;24.08;;;13.80;99.90;;;;;;6169111;23;20438;-90
2023/01/04 09:28:50;;;;;;;33.75;22.15;;;13.70;99.90;;;;;;6172309;23;20005;-90
2023/01/04 09:31:19;;;;;;;37.58;25.90;;;13.80;99.90;;;;;;6178786;23;20068;-91
2023/01/04 09:33:46;;;;;;;37.75;23.08;;;13.70;99.90;;;;;;6166220;23;20005;-91
2023/01/04 09:36:15;;;;;;;32.85;21.88;;;13.80;99.90;;;;;;6190850;23;20012;-92
2023/01/04 09:38:42;;;;;;;31.00;22.35;;;13.80;99.90;;;;;;6190625;23;20043;-90
2023/01/04 09:41:12;;;;;;;33.85;24.42;;;13.80;99.90;;;;;;6165977;23;20031;-92
2023/01/04 09:43:48;;;;;;;43.90;26.25;;;13.80;99.90;;;;;;6190309;23;20019;-91
2023/01/04 09:46:21;;;;;;;32.70;24.08;;;13.80;99.90;;;;;;6191065;23;20095;-90
2023/01/04 09:48:52;;;;;;;38.65;23.83;;;13.90;99.90;;;;;;6190544;23;20008;-92
2023/01/04 09:51:22;;;;;;;29.60;22.13;;;14.00;99.90;;;;;;6165701;23;20047;-91
2023/01/04 09:54:15;;;;;;;31.25;22.52;;;14.10;99.90;;;;;;6190380;23;20012;-91
2023/01/04 09:56:52;;;;;;;30.90;21.58;;;14.10;99.90;;;;;;6166031;23;20008;-90
2023/01/04 09:59:31;;;;;;;32.03;23.73;;;14.10;99.90;;;;;;6166495;23;20029;-90
2023/01/04 10:02:24;;;;;;;33.67;22.55;;;14.20;99.90;;;;;;6190369;23;20062;-92
2023/01/04 10:04:51;;;;;;;31.30;21.35;;;14.30;99.90;;;;;;6165444;23;20017;-90
2023/01/04 10:07:31;;;;;;;35.35;22.15;;;14.30;99.90;;;;;;6172252;23;20457;-91
2023/01/04 10:10:01;;;;;;;32.88;23.08;;;14.30;99.90;;;;;;6215406;23;20326;-90
2023/01/04 10:12:46;;;;;;;29.67;21.95;;;14.40;99.90;;;;;;6215430;23;20005;-90
2023/01/04 10:15:27;;;;;;;32.80;22.02;;;14.30;99.90;;;;;;6215643;23;20012;-90
2023/01/04 10:18:12;;;;;;;27.52;21.40;;;14.20;99.90;;;;;;6214926;23;20013;-90
2023/01/04 10:20:51;;;;;;;30.05;21.70;;;14.20;99.90;;;;;;6240757;23;20009;-90
2023/01/04 10:23:42;;;;;;;28.90;19.17;;;14.10;99.90;;;;;;6216000;23;20016;-89
2023/01/04 10:26:14;;;;;;;31.48;22.70;;;14.20;99.90;;;;;;6217511;23;20342;-93
2023/01/04 10:29:05;;;;;;;27.10;20.00;;;14.20;99.90;;;;;;6217429;23;20009;-90
2023/01/04 10:31:50;;;;;;;33.28;20.80;;;14.20;99.90;;;;;;6242974;23;20009;-92
2023/01/04 10:34:29;;;;;;;31.60;20.52;;;14.30;99.90;;;;;;6217478;23;20005;-90
2023/01/04 10:37:19;;;;;;;28.60;19.75;;;14.30;99.90;;;;;;6217948;23;20072;-92
2023/01/04 10:39:50;;;;;;;28.98;19.25;;;14.30;99.90;;;;;;6192938;23;20008;-90
2023/01/04 10:42:32;;;;;;;26.70;18.38;;;14.30;99.90;;;;;;6217797;23;20087;-91
2023/01/04 10:45:05;;;;;;;31.05;20.70;;;14.30;99.90;;;;;;6217261;23;20027;-94
2023/01/04 10:47:45;;;;;;;27.63;18.73;;;14.40;99.90;;;;;;6242904;23;20020;-91
2023/01/04 10:50:26;;;;;;;24.10;17.92;;;14.40;99.90;;;;;;6242885;23;20058;-94
2023/01/04 10:53:01;;;;;;;22.83;18.88;;;14.40;99.90;;;;;;6217583;23;20434;-91
2023/01/04 10:55:36;;;;;;;24.88;16.98;;;14.50;99.90;;;;;;6218383;23;20095;-93
2023/01/04 10:58:35;;;;;;;21.98;17.02;;;14.50;99.90;;;;;;6250313;22;20030;-91
2023/01/04 11:01:29;;;;;;;25.38;16.85;;;14.60;99.90;;;;;;6240118;22;20039;-90
2023/01/04 11:04:05;;;;;;;24.10;17.08;;;14.70;99.90;;;;;;6210334;23;20094;-91
2023/01/04 11:06:43;;;;;;;25.27;18.35;;;14.80;99.90;;;;;;6222490;23;20098;-90
2023/01/04 11:10:15;;;;;;;23.77;16.80;;;14.80;99.90;;;;;;6222498;23;20438;-92
2023/01/04 11:12:42;;;;;;;23.20;16.33;;;14.80;99.90;;;;;;6049467;23;20011;-91
2023/01/04 11:15:09;;;;;;;20.98;15.95;;;14.90;99.90;;;;;;6027473;23;20086;-92
2023/01/04 11:17:35;;;;;;;27.83;17.55;;;14.90;99.90;;;;;;6022855;23;20014;-91
2023/01/04 11:20:02;;;;;;;24.02;16.55;;;15.00;99.90;;;;;;6021529;23;20014;-90
2023/01/04 11:23:03;;;;;;;25.40;16.35;;;15.10;99.90;;;;;;6045170;23;20090;-93
2023/01/04 11:25:38;;;;;;;24.58;16.10;;;15.20;99.90;;;;;;6054769;23;20047;-90
2023/01/04 11:28:51;;;;;;;20.05;15.98;;;15.10;99.90;;;;;;6050779;23;20019;-89
2023/01/04 11:31:36;;;;;;;23.13;15.85;;;15.00;99.90;;;;;;6030585;23;20018;-94
2023/01/04 11:34:03;;;;;;;26.40;15.98;;;15.20;99.90;;;;;;6050893;23;20437;-91
2023/01/04 11:36:41;;;;;;;17.55;15.45;;;15.30;99.90;;;;;;6045831;23;20007;-90
2023/01/04 11:39:26;;;;;;;19.17;15.57;;;15.40;99.90;;;;;;6047733;23;20011;-89
2023/01/04 11:42:02;;;;;;;;;;;15.50;99.90;;;;;;6056433;23;20014;-89
2023/01/04 11:44:29;;;;;;;20.63;16.27;;;15.60;99.90;;;;;;6130887;23;20007;-90
2023/01/04 11:47:18;;;;;;;26.23;15.98;;;15.70;99.90;;;;;;6105047;23;20006;-90
2023/01/04 11:49:45;;;;;;;21.08;15.65;;;15.70;99.90;;;;;;6134189;23;20009;-90
2023/01/04 11:52:31;;;;;;;21.45;16.55;;;15.60;99.90;;;;;;6148329;23;20009;-90
2023/01/04 11:55:23;;;;;;;22.77;17.13;;;15.60;99.90;;;;;;6147125;23;20049;-89
2023/01/04 11:58:15;;;;;;;21.88;16.17;;;15.50;99.90;;;;;;6136458;23;20092;-90
2023/01/04 12:00:54;;;;;;;19.45;15.40;;;15.40;99.90;;;;;;6133557;23;20009;-89
2023/01/04 12:03:31;;;;;;;16.25;14.57;;;15.40;99.90;;;;;;6133257;23;20021;-90
2023/01/04 12:05:58;;;;;;;25.98;16.25;;;15.50;99.90;;;;;;6156203;23;20422;-90
2023/01/04 12:08:29;;;;;;;17.48;15.27;;;15.50;99.90;;;;;;6223101;23;20324;-91
2023/01/04 12:10:58;;;;;;;17.20;15.18;;;15.70;99.90;;;;;;6223076;23;20458;-91
2023/01/04 12:13:25;;;;;;;23.13;15.85;;;15.80;99.90;;;;;;6228236;22;20004;-91
2023/01/04 12:16:10;;;;;;;18.80;14.48;;;15.90;99.90;;;;;;6226419;23;20005;-90
2023/01/04 12:18:41;;;;;;;18.27;16.08;;;16.10;99.90;;;;;;6252740;23;20012;-89
2023/01/04 12:21:25;;;;;;;19.63;15.90;;;16.00;99.90;;;;;;6250426;23;20024;-89
2023/01/04 12:23:54;;;;;;;18.27;14.25;;;16.10;99.90;;;;;;6254157;23;20085;-91
2023/01/04 12:26:22;;;;;;;20.40;15.20;;;16.10;99.90;;;;;;6229695;23;20000;-89
2023/01/04 12:29:11;;;;;;;15.35;14.05;;;15.90;99.90;;;;;;6230181;23;20015;-89
2023/01/04 12:31:39;;;;;;;18.80;14.52;;;15.90;99.90;;;;;;6232068;23;20004;-90
2023/01/04 12:34:27;;;;;;;17.83;14.70;;;15.80;99.90;;;;;;6222982;22;20433;-88
2023/01/04 12:36:57;;;;;;;20.10;14.65;;;15.80;99.90;;;;;;6221788;23;20008;-89
2023/01/04 12:39:28;;;;;;;21.40;14.38;;;15.80;99.90;;;;;;6221883;23;20004;-90
2023/01/04 12:42:02;;;;;;;20.05;14.75;;;15.90;99.90;;;;;;6222017;23;20008;-88
2023/01/04 12:44:38;;;;;;;20.25;15.00;;;15.90;99.90;;;;;;6246688;23;20020;-88
2023/01/04 12:50:07;;;;;;;23.17;13.98;;;15.80;99.90;;;;;;6247125;23;20008;-91
2023/01/04 12:52:39;;;;;;;14.68;13.18;;;15.90;99.90;;;;;;6221883;23;20008;-90
2023/01/04 12:55:30;;;;;;;15.50;13.35;;;15.90;99.90;;;;;;6221794;23;20430;-91
2023/01/04 12:58:02;;;;;;;18.05;14.10;;;16.00;99.90;;;;;;6200232;23;20019;-90
2023/01/04 13:00:51;;;;;;;15.77;14.32;;;16.00;99.90;;;;;;6247177;23;20008;-90
2023/01/04 13:03:17;;;;;;;16.10;14.40;;;16.10;99.90;;;;;;6246897;23;20078;-90
2023/01/04 13:06:00;;;;;;;16.33;14.60;;;16.10;99.90;;;;;;6222808;23;20011;-92
2023/01/04 13:08:32;;;;;;;16.42;14.80;;;16.10;99.90;;;;;;6225594;23;20005;-91
2023/01/04 13:11:02;;;;;;;16.92;15.20;;;16.10;99.90;;;;;;6228524;23;20004;-90
2023/01/04 13:14:01;;;;;;;19.88;15.73;;;16.00;99.90;;;;;;6230076;23;20437;-91
2023/01/04 13:16:51;;;;;;;19.27;15.20;;;16.00;99.90;;;;;;6226339;22;20085;-93
2023/01/04 13:19:25;;;;;;;19.60;14.35;;;15.90;99.90;;;;;;6227796;23;20008;-93
2023/01/04 13:21:53;;;;;;;19.92;15.07;;;15.90;99.90;;;;;;6227685;23;20004;-92
2023/01/04 13:24:30;;;;;;;21.88;15.13;;;15.80;99.90;;;;;;6227956;23;20023;-93
2023/01/04 13:27:09;;;;;;;18.80;15.60;;;15.80;99.90;;;;;;6247382;23;20062;-93
2023/01/04 13:29:36;;;;;;;18.67;15.73;;;15.80;99.90;;;;;;6246505;23;20008;-91
2023/01/04 13:32:13;;;;;;;18.98;15.23;;;15.60;99.90;;;;;;6221871;23;20090;-92
2023/01/04 13:35:07;;;;;;;18.48;15.73;;;15.50;99.90;;;;;;6222086;23;20012;-91
2023/01/04 13:37:37;;;;;;;16.95;15.23;;;15.40;99.90;;;;;;6222226;23;20004;-90
2023/01/04 13:40:15;;;;;;;23.48;15.60;;;15.50;99.90;;;;;;6222303;23;20008;-91
2023/01/04 13:42:47;;;;;;;18.23;16.38;;;15.50;99.90;;;;;;6221387;23;20019;-91
2023/01/04 13:45:33;;;;;;;20.45;15.25;;;15.50;99.90;;;;;;6247273;23;20024;-90
2023/01/04 13:48:04;;;;;;;19.15;16.20;;;15.60;99.90;;;;;;6227243;23;20004;-95
2023/01/04 13:50:43;;;;;;;23.13;15.65;;;15.60;99.90;;;;;;6253259;23;20001;-91